»·PEaware :: SWA744 KSAN-KLAS

SWA744 :: KSAN-KLAS

FLIGHT INFORMATION

Flight Status: Arrived
Operator:
Southwest Airlines
More flights by this operator :: More flights under this callsign
Pilot: Cody B. (17747)
Aircraft: BOEING 737-800
(B738)
More flights by this aircraft type
Origin: KSAN San Diego Intl-Lindbergh
United States
Destination: KLAS McCarran Intl
United States
More flights between these airports :: More routes between these airports
Route: +PADRZ1 CHKNN SEBBY YELAH MISEN KEPEC6
File this flight plan on PilotEdge
Remarks: Just to inform you, I am new to PilotEdge.
Altitude:
(Current/Filed)
29,000
Speed:
(Current/Filed)
451kts
Departed: 02-Jan-18 11:18 AM
Arrived: 02-Jan-18 12:21 PM
Distance/Time
Traveled:
225nm/1:03
Distance/Time
To Go:
Arrived

Flight Plot

Page will automatically refresh every two minutes.

Flight plan parsing failed; only flown route is shown


Map Options




Map Legend


Flown Route
Filed Route
Departure Airport
Arrival Airport
Navaid (VOR, NDB)
Fix

Horizontal Profiles

Position Reports

Time Latitude Longitude Heading Altitude Ground
Speed
02-Jan-18 10:45 32.731562 -117.195533 259 21ft 0kts
02-Jan-18 10:46 32.731562 -117.195533 259 21ft 0kts
02-Jan-18 10:47 32.731562 -117.195533 259 21ft 0kts
02-Jan-18 10:48 32.731562 -117.195533 259 21ft 0kts
02-Jan-18 10:49 32.731562 -117.195533 259 21ft 0kts
02-Jan-18 10:50 32.731562 -117.195533 259 21ft 0kts
02-Jan-18 10:51 32.731562 -117.195533 259 21ft 0kts
02-Jan-18 10:52 32.731562 -117.195533 259 21ft 0kts
02-Jan-18 10:53 32.731562 -117.195533 259 21ft 0kts
02-Jan-18 10:54 32.731562 -117.195533 259 21ft 0kts
02-Jan-18 10:55 32.731562 -117.195533 259 21ft 0kts
02-Jan-18 10:56 32.731562 -117.195533 259 21ft 0kts
02-Jan-18 10:57 32.731562 -117.195533 259 21ft 0kts
02-Jan-18 10:58 32.731562 -117.195533 259 21ft 0kts
02-Jan-18 10:59 32.731562 -117.195533 259 21ft 0kts
02-Jan-18 11:00 32.731562 -117.195533 259 21ft 0kts
02-Jan-18 11:01 32.731562 -117.195533 259 21ft 0kts
02-Jan-18 11:02 32.731562 -117.195533 259 21ft 0kts
02-Jan-18 11:03 32.731562 -117.195533 259 21ft 0kts
02-Jan-18 11:04 32.731562 -117.195533 259 21ft 0kts
02-Jan-18 11:05 32.731562 -117.195533 259 21ft 0kts
02-Jan-18 11:06 32.731604 -117.195250 279 21ft 1kts
02-Jan-18 11:07 32.731375 -117.195141 15 21ft 0kts
02-Jan-18 11:08 32.731375 -117.195140 15 21ft 0kts
02-Jan-18 11:09 32.731375 -117.195140 15 21ft 0kts
02-Jan-18 11:10 32.731375 -117.195140 15 21ft 0kts
02-Jan-18 11:11 32.731375 -117.195140 15 21ft 0kts
02-Jan-18 11:12 32.731375 -117.195140 15 21ft 0kts
02-Jan-18 11:13 32.731399 -117.195133 15 21ft 0kts
02-Jan-18 11:14 32.732090 -117.194891 21 21ft 7kts
02-Jan-18 11:15 32.733215 -117.192544 106 20ft 10kts
02-Jan-18 11:16 32.732458 -117.189347 106 19ft 12kts
02-Jan-18 11:17 32.731606 -117.185879 105 17ft 14kts
02-Jan-18 11:18 32.730517 -117.181392 106 17ft 14kts
02-Jan-18 11:19 32.729513 -117.177263 103 22ft 10kts
02-Jan-18 11:20 32.729515 -117.176734 71 22ft 0kts
02-Jan-18 11:21 32.729519 -117.176720 71 22ft 0kts
02-Jan-18 11:22 32.729731 -117.176039 58 24ft 5kts
02-Jan-18 11:23 32.730929 -117.178849 285 22ft 19kts
02-Jan-18 11:24 32.738482 -117.210267 289 861ft 187kts
02-Jan-18 11:25 32.773471 -117.273498 305 3117ft 262kts
02-Jan-18 11:26 32.816526 -117.345090 309 7059ft 279kts
02-Jan-18 11:27 32.865031 -117.420043 307 10541ft 307kts
02-Jan-18 11:28 32.919656 -117.504790 307 13888ft 336kts
02-Jan-18 11:29 32.976759 -117.593737 306 14963ft 341kts
02-Jan-18 11:30 33.032964 -117.681581 306 14973ft 341kts
02-Jan-18 11:31 33.097064 -117.763734 318 14973ft 343kts
02-Jan-18 11:32 33.155780 -117.823182 317 17592ft 352kts
02-Jan-18 11:33 33.231805 -117.899084 318 20788ft 368kts
02-Jan-18 11:34 33.311630 -117.977168 317 23205ft 380kts
02-Jan-18 11:35 33.393314 -118.057231 316 24873ft 390kts
02-Jan-18 11:36 33.476355 -118.138588 314 27522ft 396kts
02-Jan-18 11:37 33.558326 -118.218869 313 29219ft 386kts
02-Jan-18 11:38 33.654896 -118.280071 328 29198ft 403kts
02-Jan-18 11:39 33.761774 -118.307369 15 29238ft 459kts
02-Jan-18 11:40 33.844600 -118.194721 56 29203ft 508kts
02-Jan-18 11:41 33.921199 -118.060854 52 29191ft 513kts
02-Jan-18 11:42 33.998773 -117.930683 53 29232ft 514kts
02-Jan-18 11:43 34.078509 -117.795795 53 29254ft 513kts
02-Jan-18 11:44 34.162278 -117.669979 48 29244ft 513kts
02-Jan-18 11:45 34.249999 -117.539390 48 29212ft 513kts
02-Jan-18 11:46 34.338038 -117.408462 47 29217ft 506kts
02-Jan-18 11:47 34.423959 -117.280975 48 29334ft 508kts
02-Jan-18 11:48 34.513056 -117.148704 47 29337ft 508kts
02-Jan-18 11:49 34.602019 -117.016958 48 28824ft 499kts
02-Jan-18 11:50 34.683339 -116.896701 48 27620ft 431kts
02-Jan-18 11:51 34.758030 -116.786481 48 25468ft 423kts
02-Jan-18 11:52 34.831074 -116.678698 48 24331ft 411kts
02-Jan-18 11:53 34.914126 -116.586063 34 24345ft 406kts
02-Jan-18 11:54 35.002215 -116.500997 35 24345ft 406kts
02-Jan-18 11:55 35.090434 -116.415417 35 24344ft 406kts
02-Jan-18 11:56 35.164476 -116.326117 44 23655ft 412kts
02-Jan-18 11:57 35.240456 -116.229590 44 21678ft 384kts
02-Jan-18 11:58 35.313297 -116.137336 44 20272ft 371kts
02-Jan-18 11:59 35.383860 -116.048073 44 18919ft 362kts
02-Jan-18 12:00 35.453063 -115.960595 44 17530ft 355kts
02-Jan-18 12:01 35.520039 -115.876012 44 16139ft 343kts
02-Jan-18 12:02 35.585639 -115.793254 44 14914ft 335kts
02-Jan-18 12:03 35.648851 -115.713563 43 13707ft 318kts
02-Jan-18 12:04 35.708125 -115.638335 44 13208ft 295kts
02-Jan-18 12:05 35.769162 -115.576770 13 13232ft 295kts
02-Jan-18 12:06 35.850377 -115.570127 1 13209ft 293kts
02-Jan-18 12:07 35.931362 -115.565766 2 13017ft 292kts
02-Jan-18 12:08 35.990760 -115.508482 67 12399ft 297kts
02-Jan-18 12:09 36.017327 -115.419581 66 11418ft 265kts
02-Jan-18 12:10 36.028763 -115.334336 93 10965ft 265kts
02-Jan-18 12:11 36.021825 -115.246180 93 9150ft 268kts
02-Jan-18 12:12 36.015516 -115.157860 92 8762ft 262kts
02-Jan-18 12:13 36.009663 -115.071410 91 7986ft 238kts
02-Jan-18 12:14 36.004995 -114.992832 91 7999ft 229kts
02-Jan-18 12:15 36.000284 -114.914359 91 7759ft 226kts
02-Jan-18 12:16 35.995648 -114.836534 91 6814ft 226kts
02-Jan-18 12:17 35.990583 -114.759183 92 6077ft 226kts
02-Jan-18 12:18 36.014509 -114.698281 11 5765ft 214kts
02-Jan-18 12:19 36.067443 -114.720190 323 5138ft 199kts
02-Jan-18 12:20 36.086099 -114.780669 254 4988ft 207kts
02-Jan-18 12:21 36.075843 -114.850278 265 4970ft 205kts
02-Jan-18 12:22 36.073335 -114.913468 273 4959ft 174kts
02-Jan-18 12:23 36.073558 -114.972631 272 4490ft 170kts
02-Jan-18 12:24 36.073634 -115.027497 271 3640ft 150kts
02-Jan-18 12:25 36.073659 -115.076841 269 2844ft 135kts
02-Jan-18 12:26 36.073611 -115.123307 269 2161ft 137kts
02-Jan-18 12:27 36.073740 -115.153130 297 2132ft 8kts
02-Jan-18 12:28 36.073816 -115.153300 309 2132ft 0kts
02-Jan-18 12:29 36.073892 -115.153422 305 2133ft 2kts
02-Jan-18 12:30 36.073909 -115.153452 304 2133ft 0kts
02-Jan-18 12:31 36.073909 -115.153452 304 2133ft 0kts
02-Jan-18 12:32 36.073920 -115.153471 304 2133ft 1kts
02-Jan-18 12:33 36.074476 -115.154690 299 2137ft 1kts
02-Jan-18 12:34 36.075396 -115.156265 317 2141ft 0kts
02-Jan-18 12:35 36.075396 -115.156264 317 2141ft 0kts
02-Jan-18 12:36 36.076888 -115.158016 326 2145ft 6kts
02-Jan-18 12:37 36.077616 -115.158177 16 2144ft 9kts
02-Jan-18 12:38 36.078177 -115.153498 47 2125ft 10kts
02-Jan-18 12:39 36.080554 -115.152003 352 2114ft 11kts
02-Jan-18 12:40 36.081176 -115.152625 289 2115ft 0kts
02-Jan-18 12:41 36.082062 -115.153185 20 2115ft 9kts

Navigation Log

Ident Type
Flight plan parsing failed, navigation log unavailable